Time;durP1;ratioP1;P1;durP2;ratioP2;P2;SDS_P1;SDS_P2;PMS_P1;PMS_P2;Temp;Humidity;BMP_temperature;BMP_pressure;BME280_temperature;BME280_humidity;BME280_pressure;Samples;Min_cycle;Max_cycle;Signal;HPM_P1;HPM_P2
2024/04/05 00:02:06;;;;;;;11.40;8.80;;;;;;;5.54;63.75;99920.26;106908;1254;71393;-74
2024/04/05 00:04:33;;;;;;;12.50;8.80;;;;;;;5.55;63.63;99919.27;106473;1257;60538;-76
2024/04/05 00:07:01;;;;;;;11.50;8.40;;;;;;;5.57;63.87;99914.26;105938;1253;60005;-76
2024/04/05 00:09:28;;;;;;;12.30;8.30;;;;;;;5.55;63.81;99916.69;105892;1254;72040;-76
2024/04/05 00:11:55;;;;;;;13.20;8.30;;;;;;;5.52;63.91;99915.68;106186;1256;69949;-73
2024/04/05 00:14:23;;;;;;;13.80;8.30;;;;;;;5.51;63.99;99913.32;106201;1255;72325;-74
2024/04/05 00:16:50;;;;;;;11.60;8.30;;;;;;;5.54;64.06;99917.27;107341;1253;59277;-74
2024/04/05 00:19:17;;;;;;;12.30;8.00;;;;;;;5.55;63.94;99920.04;109054;1251;60060;-75
2024/04/05 00:21:45;;;;;;;11.80;8.30;;;;;;;5.56;64.07;99919.23;109116;1253;73926;-75
2024/04/05 00:24:13;;;;;;;11.30;8.10;;;;;;;5.58;64.20;99922.92;109431;1253;69109;-76
2024/04/05 00:26:40;;;;;;;12.40;8.40;;;;;;;5.60;64.38;99923.31;109242;1253;71140;-76
2024/04/05 00:29:07;;;;;;;13.40;8.20;;;;;;;5.62;64.13;99924.49;109202;1253;58054;-74
2024/04/05 00:31:34;;;;;;;13.70;9.70;;;;;;;5.63;64.37;99923.52;109188;1252;57923;-76
2024/04/05 00:34:02;;;;;;;7.90;5.50;;;;;;;5.63;64.46;99922.10;109209;1253;72656;-76
2024/04/05 00:36:29;;;;;;;8.00;5.50;;;;;;;5.61;64.23;99919.44;109058;1253;68867;-77
2024/04/05 00:38:56;;;;;;;10.50;7.10;;;;;;;5.65;64.40;99921.42;108965;1252;71388;-77
2024/04/05 00:41:24;;;;;;;6.80;4.20;;;;;;;5.70;64.26;99921.67;109496;1254;58009;-75
2024/04/05 00:43:51;;;;;;;4.90;3.80;;;;;;;5.75;63.97;99923.90;109598;1251;60778;-75
2024/04/05 00:46:19;;;;;;;6.10;4.60;;;;;;;5.79;63.86;99921.67;109414;1252;72711;-76
2024/04/05 00:48:46;;;;;;;5.00;3.90;;;;;;;5.82;63.60;99925.42;109195;1254;68981;-77
2024/04/05 00:51:14;;;;;;;5.80;3.80;;;;;;;5.84;63.66;99923.45;109436;1251;73570;-77
2024/04/05 00:53:41;;;;;;;5.90;3.90;;;;;;;5.85;63.61;99924.09;109434;1253;58300;-77
2024/04/05 00:56:08;;;;;;;6.40;4.40;;;;;;;5.86;63.58;99926.14;109467;1251;58921;-79
2024/04/05 00:58:36;;;;;;;7.30;4.70;;;;;;;5.85;63.61;99923.73;109466;1252;72803;-78
2024/04/05 01:01:03;;;;;;;7.00;4.90;;;;;;;5.84;63.48;99926.98;109447;1254;71102;-78
2024/04/05 01:03:30;;;;;;;6.00;4.80;;;;;;;5.84;63.46;99928.39;108668;1254;72578;-77
2024/04/05 01:05:59;;;;;;;5.00;3.60;;;;;;;5.84;63.25;99929.83;109189;1253;58299;-75
2024/04/05 01:08:26;;;;;;;5.00;3.80;;;;;;;5.82;63.21;99930.38;109419;1253;59035;-79
2024/04/05 01:10:53;;;;;;;5.00;3.30;;;;;;;5.79;63.22;99928.89;109366;1252;73098;-75
2024/04/05 01:13:21;;;;;;;5.40;3.50;;;;;;;5.77;63.17;99934.32;109507;1252;69410;-79
2024/04/05 01:15:48;;;;;;;4.20;3.10;;;;;;;5.73;63.22;99933.27;109472;1253;72172;-79
2024/04/05 01:18:15;;;;;;;3.80;2.90;;;;;;;5.72;63.12;99934.14;109460;1252;57962;-77
2024/04/05 01:20:44;;;;;;;5.40;2.90;;;;;;;5.74;63.22;99935.24;109508;1254;58723;-77
2024/04/05 01:23:11;;;;;;;5.40;3.10;;;;;;;5.75;63.06;99931.34;109555;1253;72441;-77
2024/04/05 01:25:38;;;;;;;4.10;2.90;;;;;;;5.74;62.89;99932.11;109500;1251;69180;-76
2024/04/05 01:28:12;;;;;;;4.40;2.60;;;;;;;5.71;63.22;99924.55;109442;1251;71461;-76
2024/04/05 01:30:40;;;;;;;3.90;2.70;;;;;;;5.69;63.27;99923.50;109388;1253;58216;-75
2024/04/05 01:33:07;;;;;;;3.60;2.50;;;;;;;5.70;63.02;99923.79;109254;1252;58875;-75
2024/04/05 01:35:34;;;;;;;3.50;2.50;;;;;;;5.69;63.31;99922.77;109123;1253;73029;-77
2024/04/05 01:38:02;;;;;;;3.20;2.40;;;;;;;5.68;63.30;99923.73;108935;1253;69144;-76
2024/04/05 01:40:29;;;;;;;3.50;2.60;;;;;;;5.68;63.32;99929.17;108817;1254;71379;-76
2024/04/05 01:42:56;;;;;;;3.20;2.70;;;;;;;5.67;63.17;99926.73;108930;1254;58119;-74
2024/04/05 01:45:23;;;;;;;3.00;2.40;;;;;;;5.64;63.19;99927.11;109134;1252;58821;-74
2024/04/05 01:47:51;;;;;;;3.70;2.70;;;;;;;5.60;63.33;99932.56;109005;1252;72208;-75
2024/04/05 01:50:18;;;;;;;4.50;2.60;;;;;;;5.55;63.31;99936.88;109376;1254;69150;-74
2024/04/05 01:52:47;;;;;;;4.30;3.20;;;;;;;5.54;63.47;99940.65;109515;1253;71889;-75
2024/04/05 01:55:15;;;;;;;4.00;3.20;;;;;;;5.50;63.54;99941.14;109224;1253;59046;-76
2024/04/05 01:57:43;;;;;;;4.00;3.10;;;;;;;5.49;63.39;99946.83;109201;1252;58843;-78
2024/04/05 02:00:10;;;;;;;4.50;3.60;;;;;;;5.47;63.74;99947.24;108785;1254;73462;-77
2024/04/05 02:02:41;;;;;;;6.00;3.90;;;;;;;5.43;63.50;99946.29;108071;1254;68852;-74
2024/04/05 02:05:09;;;;;;;3.80;3.40;;;;;;;5.41;63.83;99945.79;108919;1254;71453;-78
2024/04/05 02:07:36;;;;;;;6.00;3.20;;;;;;;5.37;63.84;99945.41;109131;1253;58857;-77
2024/04/05 02:10:04;;;;;;;4.00;2.90;;;;;;;5.33;64.17;99947.84;108830;1254;61003;-76
2024/04/05 02:12:31;;;;;;;5.60;3.70;;;;;;;5.28;64.44;99947.92;108741;1254;74575;-75
2024/04/05 02:14:58;;;;;;;3.80;3.00;;;;;;;5.24;64.32;99947.52;108606;1254;68754;-73
2024/04/05 02:17:26;;;;;;;4.00;3.00;;;;;;;5.20;64.58;99952.80;108856;1254;72546;-75
2024/04/05 02:19:54;;;;;;;5.20;3.40;;;;;;;5.17;64.55;99954.44;108542;1260;60773;-77
2024/04/05 02:22:21;;;;;;;5.00;3.30;;;;;;;5.15;64.76;99959.08;109031;1254;59177;-77
2024/04/05 02:24:49;;;;;;;3.50;3.10;;;;;;;5.13;64.71;99962.81;108552;1254;73872;-77
2024/04/05 02:28:00;;;;;;;4.00;3.10;;;;;;;5.14;64.59;99960.35;108569;1254;68851;-77
2024/04/05 02:30:27;;;;;;;4.60;3.60;;;;;;;5.14;65.05;99962.45;108201;1254;71734;-77
2024/04/05 02:32:55;;;;;;;8.40;3.60;;;;;;;5.19;64.72;99959.77;106682;1254;61380;-77
2024/04/05 02:35:22;;;;;;;4.70;3.30;;;;;;;5.28;64.75;99961.39;107891;1253;60588;-81
2024/04/05 02:37:49;;;;;;;7.00;3.80;;;;;;;5.29;64.69;99961.54;107610;1254;73492;-76
2024/04/05 02:40:16;;;;;;;5.90;4.40;;;;;;;5.27;64.90;99966.79;108821;1254;68834;-77
2024/04/05 02:42:44;;;;;;;5.50;4.10;;;;;;;5.28;64.70;99968.48;108969;1254;71392;-78
2024/04/05 02:45:11;;;;;;;6.10;4.50;;;;;;;5.27;64.78;99970.79;108716;1259;61172;-78
2024/04/05 02:47:38;;;;;;;6.40;5.10;;;;;;;5.28;65.13;99975.34;108641;1254;59371;-78
2024/04/05 02:50:06;;;;;;;7.30;4.80;;;;;;;5.26;65.03;99980.37;108734;1254;73836;-78
2024/04/05 02:52:33;;;;;;;8.40;6.80;;;;;;;5.24;65.00;99980.94;108917;1258;70196;-76
2024/04/05 02:55:01;;;;;;;6.70;5.70;;;;;;;5.23;65.16;99977.88;108584;1254;71488;-76
2024/04/05 02:57:28;;;;;;;7.70;6.00;;;;;;;5.21;65.18;99977.08;108618;1253;61032;-77
2024/04/05 02:59:56;;;;;;;7.50;6.20;;;;;;;5.19;65.38;99977.42;108697;1253;60380;-78
2024/04/05 03:02:23;;;;;;;7.00;5.60;;;;;;;5.18;65.43;99974.44;108654;1252;73363;-77
2024/04/05 03:04:51;;;;;;;9.60;6.60;;;;;;;5.15;65.64;99974.27;107553;1256;69162;-76
2024/04/05 03:07:19;;;;;;;7.80;5.70;;;;;;;5.11;65.73;99972.84;107892;1254;72777;-77
2024/04/05 03:09:46;;;;;;;7.80;5.70;;;;;;;5.06;66.14;99973.09;107493;1256;61748;-75
2024/04/05 03:12:13;;;;;;;8.20;5.70;;;;;;;5.01;66.25;99974.73;107224;1254;61346;-75
2024/04/05 03:14:40;;;;;;;6.10;4.80;;;;;;;5.06;66.19;99975.22;107604;1253;73357;-76
2024/04/05 03:17:08;;;;;;;8.80;5.50;;;;;;;5.13;66.48;99971.95;108875;1254;68992;-75
2024/04/05 03:19:35;;;;;;;6.20;4.90;;;;;;;5.13;66.62;99968.68;107672;1254;71231;-75
2024/04/05 03:22:03;;;;;;;6.80;5.20;;;;;;;5.11;66.86;99965.31;108026;1252;59957;-76
2024/04/05 03:24:30;;;;;;;9.60;6.20;;;;;;;5.10;66.75;99960.96;108512;1253;59042;-77
2024/04/05 03:26:58;;;;;;;7.30;4.80;;;;;;;5.12;66.74;99956.96;108119;1253;73455;-75
2024/04/05 03:29:25;;;;;;;7.30;5.10;;;;;;;5.13;66.77;99957.79;107859;1254;68775;-79
2024/04/05 03:31:52;;;;;;;8.60;5.10;;;;;;;5.12;66.97;99960.34;108361;1255;71396;-75
2024/04/05 03:34:20;;;;;;;5.80;4.60;;;;;;;5.10;66.98;99961.85;108868;1253;61211;-75
2024/04/05 03:36:47;;;;;;;7.20;4.90;;;;;;;5.09;67.16;99967.59;108762;1254;60412;-76
2024/04/05 03:39:14;;;;;;;7.80;5.50;;;;;;;5.05;67.06;99972.09;108386;1252;73391;-77
2024/04/05 03:41:41;;;;;;;6.50;5.20;;;;;;;5.04;67.42;99976.42;108681;1253;68735;-76
2024/04/05 03:44:09;;;;;;;8.30;5.20;;;;;;;5.01;67.29;99982.50;108990;1254;71334;-77
2024/04/05 03:46:38;;;;;;;6.30;4.50;;;;;;;4.98;67.37;99984.30;108387;1254;59237;-75
2024/04/05 03:49:09;;;;;;;7.00;5.20;;;;;;;5.05;67.32;99986.69;108947;1254;59292;-75
2024/04/05 03:51:36;;;;;;;9.10;5.70;;;;;;;5.16;67.28;99984.39;106653;1256;74104;-75
2024/04/05 03:54:03;;;;;;;7.50;5.30;;;;;;;5.19;67.24;99983.80;106553;1256;70303;-77
2024/04/05 03:56:30;;;;;;;9.10;6.50;;;;;;;5.18;67.31;99987.88;105766;1253;74967;-75
2024/04/05 03:58:58;;;;;;;6.70;5.90;;;;;;;5.21;67.48;99991.31;105405;1254;61342;-77
2024/04/05 04:01:25;;;;;;;9.40;6.30;;;;;;;5.26;67.22;99994.27;106106;1252;61091;-81
2024/04/05 04:03:53;;;;;;;8.00;6.40;;;;;;;5.28;67.20;99995.83;105563;1256;77133;-73
2024/04/05 04:06:20;;;;;;;10.80;6.30;;;;;;;5.31;67.17;99994.90;105971;1259;69023;-77
2024/04/05 04:08:47;;;;;;;9.80;6.00;;;;;;;5.36;67.21;99997.66;106307;1254;72475;-76
2024/04/05 04:11:14;;;;;;;9.00;5.50;;;;;;;5.43;67.01;100001.84;106974;1253;61182;-79
2024/04/05 04:13:41;;;;;;;8.40;5.90;;;;;;;5.52;66.81;100000.36;106810;1254;62539;-76
2024/04/05 04:16:09;;;;;;;7.20;5.40;;;;;;;5.60;66.40;100002.48;107123;1254;73401;-78
2024/04/05 04:18:36;;;;;;;7.50;5.50;;;;;;;5.68;66.23;100006.77;106654;1254;69022;-78
2024/04/05 04:21:05;;;;;;;7.70;4.90;;;;;;;5.72;65.82;100003.61;106274;1257;70703;-78
2024/04/05 04:23:33;;;;;;;8.00;5.60;;;;;;;5.74;65.57;100004.14;106596;1257;61289;-77
2024/04/05 04:26:00;;;;;;;8.10;5.10;;;;;;;5.76;65.61;100004.20;107006;1252;61170;-75
2024/04/05 04:28:27;;;;;;;7.20;5.20;;;;;;;5.78;65.42;100001.33;107535;1254;74566;-77
2024/04/05 04:30:55;;;;;;;8.00;5.10;;;;;;;5.82;65.40;99997.67;108265;1254;68554;-75
2024/04/05 04:33:22;;;;;;;8.20;5.00;;;;;;;5.89;65.08;100003.03;107987;1256;72747;-75
2024/04/05 04:35:49;;;;;;;7.80;4.80;;;;;;;5.92;65.01;100009.77;107651;1253;61237;-74
2024/04/05 04:38:18;;;;;;;7.80;4.10;;;;;;;5.96;64.79;100010.02;107725;1256;60672;-75
2024/04/05 04:40:45;;;;;;;8.00;5.10;;;;;;;6.00;64.69;100010.39;107835;1254;75505;-74
2024/04/05 04:43:13;;;;;;;6.50;4.70;;;;;;;6.02;64.56;100012.35;107081;1257;68954;-74
2024/04/05 04:45:40;;;;;;;5.40;4.20;;;;;;;6.07;64.48;100015.61;107157;1254;71042;-76
2024/04/05 04:48:07;;;;;;;4.70;4.10;;;;;;;6.13;64.17;100017.42;106687;1257;60001;-73
2024/04/05 04:50:35;;;;;;;5.20;4.00;;;;;;;6.12;63.94;100016.89;105658;1259;61222;-74
2024/04/05 04:53:02;;;;;;;5.00;4.40;;;;;;;6.16;63.90;100026.98;106478;1260;74596;-78
2024/04/05 04:55:29;;;;;;;5.60;4.40;;;;;;;6.20;63.81;100028.94;106468;1257;68708;-76
2024/04/05 04:57:57;;;;;;;6.40;4.10;;;;;;;6.23;63.48;100037.07;106169;1254;75109;-75
2024/04/05 05:00:24;;;;;;;6.80;4.50;;;;;;;6.24;63.46;100033.83;105451;1260;61625;-77
2024/04/05 05:02:52;;;;;;;5.40;4.10;;;;;;;6.29;63.52;100040.08;106341;1254;61244;-78
2024/04/05 05:05:20;;;;;;;8.30;4.70;;;;;;;6.38;63.34;100043.54;106391;1253;73356;-76
2024/04/05 05:07:47;;;;;;;7.10;4.60;;;;;;;6.49;63.33;100044.27;106201;1255;70242;-79
2024/04/05 05:10:14;;;;;;;5.90;3.80;;;;;;;6.62;62.82;100048.27;105646;1257;71622;-75
2024/04/05 05:12:42;;;;;;;7.70;4.20;;;;;;;6.74;62.41;100045.85;106070;1259;61323;-76
2024/04/05 05:15:09;;;;;;;5.10;3.90;;;;;;;6.84;62.15;100043.52;106004;1259;61234;-76
2024/04/05 05:17:37;;;;;;;7.30;3.90;;;;;;;6.95;61.68;100043.77;106369;1257;73451;-76
2024/04/05 05:20:08;;;;;;;5.90;4.10;;;;;;;7.06;61.65;100046.83;106696;1256;68857;-77
2024/04/05 05:22:35;;;;;;;7.70;4.10;;;;;;;7.20;61.19;100043.44;106055;1254;71494;-76
2024/04/05 05:25:03;;;;;;;6.70;4.30;;;;;;;7.35;61.01;100044.81;107065;1259;61230;-75
2024/04/05 05:27:31;;;;;;;6.30;3.90;;;;;;;7.42;60.65;100039.92;107304;1254;61103;-75
2024/04/05 05:29:58;;;;;;;5.70;3.80;;;;;;;7.44;60.25;100045.36;106695;1254;73542;-77
2024/04/05 05:32:25;;;;;;;6.20;4.00;;;;;;;7.44;60.13;100046.44;106403;1256;72891;-74
2024/04/05 05:34:53;;;;;;;5.70;4.00;;;;;;;7.39;59.94;100045.48;107609;1256;72724;-77
2024/04/05 05:37:21;;;;;;;7.60;5.10;;;;;;;7.35;60.38;100047.57;106631;1257;59997;-76
2024/04/05 05:39:48;;;;;;;6.00;4.90;;;;;;;7.31;60.26;100051.69;106423;1257;61221;-78
2024/04/05 05:42:16;;;;;;;11.30;5.30;;;;;;;7.22;60.43;100051.41;106869;1257;73420;-77
2024/04/05 05:44:43;;;;;;;8.50;5.90;;;;;;;7.13;60.76;100053.51;106358;1254;70130;-77
2024/04/05 05:47:10;;;;;;;9.50;6.00;;;;;;;7.03;61.04;100046.38;106100;1254;71168;-76
2024/04/05 05:49:38;;;;;;;6.80;5.70;;;;;;;7.02;61.27;100047.92;106367;1254;61306;-75
2024/04/05 05:52:08;;;;;;;6.50;4.80;;;;;;;7.00;61.39;100043.90;106181;1259;61158;-75
2024/04/05 05:54:36;;;;;;;9.10;6.40;;;;;;;7.06;61.73;100047.93;105598;1259;74641;-75
2024/04/05 05:57:03;;;;;;;9.80;6.30;;;;;;;7.16;61.89;100046.85;106433;1257;72213;-74
2024/04/05 05:59:31;;;;;;;7.10;6.30;;;;;;;7.26;62.03;100047.32;105792;1257;74764;-73
2024/04/05 06:01:59;;;;;;;8.10;5.70;;;;;;;7.35;61.91;100044.95;105690;1259;61308;-74
2024/04/05 06:04:27;;;;;;;9.00;6.30;;;;;;;7.39;61.71;100045.82;105553;1259;61495;-75
2024/04/05 06:06:55;;;;;;;8.60;6.80;;;;;;;7.39;61.74;100047.73;105912;1254;77615;-76
2024/04/05 06:09:22;;;;;;;8.80;6.20;;;;;;;7.41;61.89;100049.16;106016;1257;70507;-75
2024/04/05 06:11:51;;;;;;;9.00;5.90;;;;;;;7.45;61.93;100049.52;106074;1255;74747;-74
2024/04/05 06:14:18;;;;;;;11.10;7.40;;;;;;;7.51;61.93;100042.81;106010;1256;61234;-74
2024/04/05 06:16:45;;;;;;;10.60;6.80;;;;;;;7.60;61.79;100046.00;105931;1257;61307;-74
2024/04/05 06:19:13;;;;;;;10.90;7.10;;;;;;;7.66;61.47;100044.59;106081;1254;74403;-74
2024/04/05 06:21:40;;;;;;;15.10;7.30;;;;;;;7.75;61.46;100044.84;107498;1254;71186;-75
2024/04/05 06:24:08;;;;;;;11.00;6.90;;;;;;;7.82;60.90;100045.20;107456;1253;71236;-75
2024/04/05 06:26:36;;;;;;;12.30;7.40;;;;;;;7.89;60.99;100042.58;105709;1264;61282;-74
2024/04/05 06:29:03;;;;;;;15.20;7.60;;;;;;;7.95;60.91;100036.09;105968;1257;61272;-75
2024/04/05 06:31:31;;;;;;;13.60;7.50;;;;;;;8.05;60.62;100038.45;106062;1257;77094;-75
2024/04/05 06:33:58;;;;;;;9.60;6.50;;;;;;;8.10;60.41;100041.56;106080;1257;72760;-75
2024/04/05 06:36:26;;;;;;;11.40;7.40;;;;;;;8.18;60.60;100038.68;106026;1265;74947;-75
2024/04/05 06:38:53;;;;;;;9.20;6.00;;;;;;;8.27;60.27;100040.83;106091;1257;61654;-75
2024/04/05 06:41:21;;;;;;;12.10;6.20;;;;;;;8.36;60.02;100039.76;106135;1254;61371;-73
2024/04/05 06:43:48;;;;;;;10.80;6.60;;;;;;;8.42;59.61;100036.54;105695;1256;77018;-74
2024/04/05 06:46:17;;;;;;;11.10;5.80;;;;;;;8.48;59.31;100034.83;105402;1261;69866;-74
2024/04/05 06:48:44;;;;;;;8.60;5.70;;;;;;;8.51;58.74;100033.48;105597;1266;70970;-76
2024/04/05 06:51:12;;;;;;;7.90;5.70;;;;;;;8.53;58.77;100036.27;106005;1261;61244;-74
2024/04/05 06:53:39;;;;;;;10.10;6.40;;;;;;;8.56;58.34;100044.11;106031;1257;61608;-74
2024/04/05 06:56:06;;;;;;;10.70;7.00;;;;;;;8.52;58.29;100043.27;106042;1257;76677;-74
2024/04/05 06:58:34;;;;;;;11.30;6.70;;;;;;;8.45;58.53;100043.89;106071;1257;73601;-75
2024/04/05 07:01:01;;;;;;;12.10;6.60;;;;;;;8.41;58.57;100051.28;106122;1260;73389;-75
2024/04/05 07:03:29;;;;;;;12.70;7.00;;;;;;;8.37;58.85;100052.23;106119;1256;61153;-74
2024/04/05 07:06:02;;;;;;;9.80;6.10;;;;;;;8.39;58.97;100056.44;106024;1253;61142;-75
2024/04/05 07:08:30;;;;;;;13.60;6.80;;;;;;;8.49;59.11;100050.76;105635;1259;72413;-75
2024/04/05 07:10:58;;;;;;;13.90;7.10;;;;;;;8.55;58.82;100051.59;106023;1260;71882;-75
2024/04/05 07:13:26;;;;;;;12.00;6.80;;;;;;;8.57;58.97;100053.17;106117;1257;75212;-76
2024/04/05 07:15:55;;;;;;;11.10;6.80;;;;;;;8.62;58.91;100050.24;107487;1254;61317;-76
2024/04/05 07:18:24;;;;;;;12.50;6.60;;;;;;;8.67;58.91;100046.00;107095;1253;61189;-75
2024/04/05 07:20:54;;;;;;;12.50;6.40;;;;;;;8.75;59.04;100044.55;106229;1257;75804;-76
2024/04/05 07:23:21;;;;;;;7.30;5.90;;;;;;;8.85;59.18;100040.58;106175;1255;72402;-74
2024/04/05 07:25:48;;;;;;;11.20;6.30;;;;;;;8.98;58.95;100044.64;106131;1254;74504;-77
2024/04/05 07:28:16;;;;;;;8.70;6.00;;;;;;;9.08;58.47;100039.92;106262;1258;61211;-77
2024/04/05 07:30:44;;;;;;;10.70;5.90;;;;;;;9.17;58.14;100039.92;106256;1254;62253;-76
2024/04/05 07:33:11;;;;;;;7.50;5.80;;;;;;;9.32;58.14;100040.40;105766;1257;76853;-77
2024/04/05 07:35:40;;;;;;;8.30;5.30;;;;;;;9.48;57.72;100040.92;106184;1258;69355;-76
2024/04/05 07:38:07;;;;;;;8.50;5.90;;;;;;;9.75;57.44;100043.11;106154;1259;72731;-76
2024/04/05 07:40:35;;;;;;;9.40;5.90;;;;;;;9.99;56.39;100043.42;106663;1257;61278;-79
2024/04/05 07:43:03;;;;;;;9.90;5.90;;;;;;;10.16;56.30;100034.92;107086;1254;64993;-79
2024/04/05 07:45:31;;;;;;;7.20;5.80;;;;;;;10.39;55.76;100037.75;106893;1257;76884;-79
2024/04/05 07:47:58;;;;;;;10.40;5.40;;;;;;;10.62;55.56;100037.73;106653;1257;71766;-78
2024/04/05 07:50:26;;;;;;;6.10;4.80;;;;;;;10.87;55.07;100036.20;106555;1258;70537;-80
2024/04/05 07:52:53;;;;;;;6.20;5.20;;;;;;;11.12;54.65;100030.34;106930;1257;61118;-80
2024/04/05 07:55:21;;;;;;;5.70;4.70;;;;;;;11.37;53.96;100025.40;107351;1254;61279;-81
2024/04/05 07:57:48;;;;;;;6.30;4.70;;;;;;;11.56;53.44;100026.69;107815;1254;73540;-80
2024/04/05 08:00:16;;;;;;;7.20;5.00;;;;;;;11.77;52.44;100020.88;107996;1254;71347;-81
2024/04/05 08:02:47;;;;;;;8.20;5.20;;;;;;;11.91;52.05;100033.95;107961;1254;74104;-82
2024/04/05 08:05:16;;;;;;;9.80;5.40;;;;;;;11.94;51.82;100040.08;107698;1254;63217;-80
2024/04/05 08:07:43;;;;;;;5.20;4.40;;;;;;;12.03;51.92;100038.02;106915;1254;62235;-80
2024/04/05 08:10:11;;;;;;;6.20;5.50;;;;;;;12.20;51.59;100028.21;107609;1255;76951;-79
2024/04/05 08:12:39;;;;;;;6.90;4.40;;;;;;;12.35;51.37;100030.36;107800;1254;71103;-78
2024/04/05 08:15:09;;;;;;;6.20;4.80;;;;;;;12.48;50.96;100027.88;107288;1253;72925;-80
2024/04/05 08:17:37;;;;;;;7.10;4.90;;;;;;;12.66;50.53;100025.70;107377;1254;61176;-78
2024/04/05 08:20:06;;;;;;;6.80;4.40;;;;;;;12.78;50.53;100024.46;107418;1253;61261;-78
2024/04/05 08:22:33;;;;;;;7.60;5.00;;;;;;;12.93;50.19;100026.38;107549;1254;75087;-79
2024/04/05 08:25:00;;;;;;;6.90;5.60;;;;;;;13.07;49.90;100021.38;107152;1254;70235;-78
2024/04/05 08:27:30;;;;;;;7.30;5.20;;;;;;;13.14;49.69;100021.59;107108;1254;74682;-79
2024/04/05 08:29:58;;;;;;;5.90;4.60;;;;;;;13.21;49.29;100020.23;106358;1257;61198;-79
2024/04/05 08:32:25;;;;;;;8.00;5.60;;;;;;;13.24;48.72;100024.53;106470;1260;61139;-79
2024/04/05 08:34:53;;;;;;;6.80;4.80;;;;;;;13.23;48.66;100021.86;106307;1254;76824;-79
2024/04/05 08:37:20;;;;;;;5.80;4.40;;;;;;;13.29;48.95;100016.20;106722;1254;69922;-79
2024/04/05 08:39:48;;;;;;;6.10;5.20;;;;;;;13.40;48.75;100007.95;106912;1254;73474;-79
2024/04/05 08:42:17;;;;;;;6.40;4.90;;;;;;;13.50;48.41;100010.13;106519;1258;61336;-78
2024/04/05 08:44:47;;;;;;;8.50;5.20;;;;;;;13.55;48.09;100012.62;107226;1254;61304;-79
2024/04/05 08:47:14;;;;;;;6.70;4.50;;;;;;;13.53;48.31;100011.86;107056;1254;76368;-78
2024/04/05 08:49:42;;;;;;;7.60;4.90;;;;;;;13.61;48.44;100004.59;107445;1254;69560;-79
2024/04/05 08:52:10;;;;;;;6.90;4.60;;;;;;;13.83;48.05;100003.41;107279;1254;73643;-81
2024/04/05 08:54:37;;;;;;;8.10;4.60;;;;;;;14.01;47.67;100004.61;106623;1254;60286;-81
2024/04/05 08:57:05;;;;;;;5.00;4.50;;;;;;;14.17;46.91;100000.40;106831;1254;61321;-80
2024/04/05 08:59:33;;;;;;;5.60;4.30;;;;;;;14.34;46.93;100000.73;106594;1263;74623;-80
2024/04/05 09:02:01;;;;;;;5.50;4.30;;;;;;;14.56;46.74;100004.27;108092;1257;72811;-80
2024/04/05 09:04:29;;;;;;;6.60;4.50;;;;;;;14.82;46.78;100002.96;107415;1253;74028;-79
2024/04/05 09:06:57;;;;;;;7.30;4.40;;;;;;;15.22;46.21;100005.95;108652;1254;60957;-78
2024/04/05 09:09:28;;;;;;;8.10;4.40;;;;;;;15.69;45.05;100003.50;107914;1260;60128;-78
2024/04/05 09:12:10;;;;;;;5.30;4.30;;;;;;;16.27;44.38;100000.29;106803;1254;75554;-78
2024/04/05 09:14:39;;;;;;;6.10;3.90;;;;;;;17.08;43.21;99991.77;107923;1257;71438;-78
2024/04/05 09:17:14;;;;;;;5.70;3.90;;;;;;;17.71;41.78;99987.45;106594;1254;71619;-77
2024/04/05 09:19:41;;;;;;;7.50;4.90;;;;;;;18.19;40.22;99993.77;107232;1253;61231;-79
2024/04/05 09:22:19;;;;;;;4.70;3.80;;;;;;;18.49;39.91;99990.19;107554;1254;61228;-79
2024/04/05 09:24:46;;;;;;;4.90;4.00;;;;;;;18.93;38.78;99987.54;107698;1253;75738;-80
2024/04/05 09:27:17;;;;;;;6.80;4.70;;;;;;;19.26;38.65;99990.35;106787;1258;71117;-80
2024/04/05 09:29:46;;;;;;;6.20;4.10;;;;;;;19.81;38.39;99991.31;106767;1259;75219;-79
2024/04/05 09:32:18;;;;;;;8.50;4.20;;;;;;;20.47;37.68;99987.44;106828;1258;63735;-83
2024/04/05 09:34:46;;;;;;;6.00;4.50;;;;;;;21.10;36.40;99975.69;106874;1257;61266;-77
2024/04/05 09:37:14;;;;;;;6.40;3.70;;;;;;;21.56;35.86;99969.80;106499;1254;75734;-78
2024/04/05 09:39:41;;;;;;;4.70;4.30;;;;;;;22.08;35.20;99970.55;106493;1257;71372;-79
2024/04/05 09:42:10;;;;;;;9.40;4.40;;;;;;;22.58;33.84;99970.23;106758;1256;72052;-78
2024/04/05 09:44:40;;;;;;;5.10;4.00;;;;;;;22.92;33.72;99969.79;106638;1254;61621;-76
2024/04/05 09:47:08;;;;;;;6.00;4.20;;;;;;;23.50;33.40;99962.06;105962;1254;61145;-78
2024/04/05 09:49:36;;;;;;;5.30;4.20;;;;;;;24.16;32.69;99957.58;106854;1254;79150;-79
2024/04/05 09:52:09;;;;;;;4.60;4.00;;;;;;;24.83;31.84;99952.90;106795;1257;71619;-79
2024/04/05 09:54:38;;;;;;;4.70;4.20;;;;;;;25.34;30.99;99942.43;106941;1254;75425;-78
2024/04/05 09:57:10;;;;;;;4.50;4.00;;;;;;;25.61;30.15;99950.66;107324;1254;61289;-79
2024/04/05 09:59:37;;;;;;;6.70;4.10;;;;;;;25.61;29.72;99947.61;107868;1253;327629;-78
2024/04/05 10:04:21;;;;;;;5.30;4.60;;;;;;;25.42;29.69;99947.87;105307;1292;602052;-80
2024/04/05 10:06:49;;;;;;;6.90;4.60;;;;;;;25.29;29.87;99947.23;106432;1268;59936;-78
2024/04/05 10:09:21;;;;;;;6.50;4.00;;;;;;;25.51;29.79;99943.73;106453;1267;61082;-76
2024/04/05 10:11:52;;;;;;;4.80;4.30;;;;;;;25.93;29.65;99942.36;106377;1264;71773;-76
2024/04/05 10:14:23;;;;;;;7.40;4.50;;;;;;;26.33;29.53;99940.52;106183;1260;69675;-78
2024/04/05 10:16:51;;;;;;;4.90;4.50;;;;;;;26.80;28.87;99942.37;106432;1267;196415;-80
2024/04/05 10:19:19;;;;;;;7.00;4.10;;;;;;;27.17;28.23;99938.37;106394;1261;60667;-79
2024/04/05 10:21:47;;;;;;;4.60;3.90;;;;;;;27.35;27.72;99942.42;106053;1261;60977;-79
2024/04/05 10:24:16;;;;;;;5.60;3.90;;;;;;;27.11;27.78;99941.42;105945;1260;75522;-80
2024/04/05 10:26:50;;;;;;;5.10;3.50;;;;;;;26.67;28.39;99941.11;105864;1261;72194;-77
2024/04/05 10:29:18;;;;;;;4.60;3.40;;;;;;;26.64;28.07;99950.31;106164;1261;72182;-79
2024/04/05 10:31:46;;;;;;;4.10;3.70;;;;;;;26.47;28.22;99943.71;106136;1261;60502;-78
2024/04/05 10:34:22;;;;;;;3.90;3.00;;;;;;;26.74;28.55;99943.02;106119;1261;60755;-75
2024/04/05 10:36:50;;;;;;;5.30;3.50;;;;;;;27.45;27.68;99939.34;105977;1267;74445;-76
2024/04/05 10:39:18;;;;;;;4.50;3.80;;;;;;;27.79;27.35;99944.62;106094;1267;71603;-76
2024/04/05 10:41:46;;;;;;;3.70;3.40;;;;;;;28.07;27.36;99937.83;106174;1264;73549;-79
2024/04/05 10:44:18;;;;;;;3.90;3.50;;;;;;;28.43;26.99;99932.73;105970;1266;61538;-76
2024/04/05 10:46:48;;;;;;;4.40;3.20;;;;;;;28.62;26.70;99931.66;106274;1264;62470;-74
2024/04/05 10:49:15;;;;;;;5.10;3.40;;;;;;;28.87;26.35;99934.60;106999;1264;73705;-77
2024/04/05 10:51:43;;;;;;;4.10;3.60;;;;;;;28.85;26.17;99929.21;105478;1262;72815;-76
2024/04/05 10:54:12;;;;;;;3.80;3.20;;;;;;;28.85;26.42;99928.42;106003;1267;72635;-76
2024/04/05 10:56:40;;;;;;;4.60;3.60;;;;;;;29.34;26.36;99924.91;105779;1267;61042;-75
2024/04/05 10:59:12;;;;;;;3.80;3.40;;;;;;;29.86;25.61;99922.14;107676;1260;60733;-76
2024/04/05 11:01:39;;;;;;;5.60;3.40;;;;;;;30.26;25.53;99920.83;108301;1260;74940;-77
2024/04/05 11:04:10;;;;;;;5.00;3.20;;;;;;;30.67;24.93;99913.06;106710;1256;70980;-74
2024/04/05 11:06:38;;;;;;;4.00;3.50;;;;;;;31.00;24.83;99912.66;106502;1262;73123;-75
2024/04/05 11:09:06;;;;;;;3.10;2.60;;;;;;;31.35;24.37;99919.64;106274;1258;60977;-77
2024/04/05 11:11:34;;;;;;;5.00;3.10;;;;;;;31.34;23.38;99917.08;106138;1257;60946;-77
2024/04/05 11:14:10;;;;;;;3.70;3.30;;;;;;;30.85;23.96;99921.07;105927;1257;75067;-75
2024/04/05 11:16:38;;;;;;;4.00;3.20;;;;;;;30.23;24.32;99915.59;105963;1256;72048;-79
2024/04/05 11:19:05;;;;;;;3.60;3.30;;;;;;;29.96;24.75;99907.02;106119;1258;71163;-77
2024/04/05 11:21:33;;;;;;;4.50;3.00;;;;;;;30.12;24.69;99904.23;106070;1259;61487;-77
2024/04/05 11:24:02;;;;;;;4.90;3.20;;;;;;;30.36;24.80;99894.88;106098;1257;60552;-76
2024/04/05 11:26:30;;;;;;;3.80;3.10;;;;;;;30.75;24.63;99900.16;106357;1257;76045;-77
2024/04/05 11:29:00;;;;;;;3.10;2.80;;;;;;;31.22;23.92;99893.52;106277;1258;69273;-79
2024/04/05 11:31:29;;;;;;;3.60;3.10;;;;;;;31.46;23.45;99891.90;106230;1260;71504;-80
2024/04/05 11:34:01;;;;;;;4.30;3.10;;;;;;;31.45;23.30;99889.33;107148;1257;62296;-78